Time;durP1;ratioP1;P1;durP2;ratioP2;P2;SDS_P1;SDS_P2;PMS_P1;PMS_P2;Temp;Humidity;BMP_temperature;BMP_pressure;BME280_temperature;BME280_humidity;BME280_pressure;Samples;Min_cycle;Max_cycle;Signal;HPM_P1;HPM_P2
2023/08/18 00:00:23;;;;;;;5.32;3.20;;;;;;;;;;5059937;28;20033;-69
2023/08/18 00:02:50;;;;;;;3.10;2.67;;;;;;;;;;5065240;28;20538;-70
2023/08/18 00:05:16;;;;;;;4.32;3.00;;;;;;;;;;5059704;28;20452;-70
2023/08/18 00:07:43;;;;;;;3.70;2.70;;;;;;;;;;5056710;28;20374;-70
2023/08/18 00:10:09;;;;;;;3.15;2.67;;;;;;;;;;5048261;28;20363;-69
2023/08/18 00:12:35;;;;;;;4.68;2.75;;;;;;;;;;5048926;28;20047;-70
2023/08/18 00:15:01;;;;;;;4.07;2.80;;;;;;;;;;5056965;28;20099;-68
2023/08/18 00:17:27;;;;;;;6.45;2.85;;;;;;;;;;5050039;28;20021;-69
2023/08/18 00:19:54;;;;;;;5.00;3.10;;;;;;;;;;5053186;28;20458;-68
2023/08/18 00:22:20;;;;;;;6.88;3.35;;;;;;;;;;5045165;28;20446;-68
2023/08/18 00:24:46;;;;;;;4.82;2.90;;;;;;;;;;5050657;28;20025;-68
2023/08/18 00:27:12;;;;;;;4.32;2.70;;;;;;;;;;5052249;28;20408;-68
2023/08/18 00:29:38;;;;;;;5.70;3.03;;;;;;;;;;5059757;28;20032;-68
2023/08/18 00:32:05;;;;;;;6.25;2.85;;;;;;;;;;5060723;28;20031;-68
2023/08/18 00:34:31;;;;;;;3.58;3.00;;;;;;;;;;5058495;28;20035;-68
2023/08/18 00:36:57;;;;;;;4.30;3.03;;;;;;;;;;5062670;28;20072;-69
2023/08/18 00:39:23;;;;;;;5.10;2.60;;;;;;;;;;5052021;28;20060;-69
2023/08/18 00:41:49;;;;;;;6.18;3.05;;;;;;;;;;5063754;28;20033;-68
2023/08/18 00:44:16;;;;;;;8.32;3.03;;;;;;;;;;5061633;28;20492;-68
2023/08/18 00:46:43;;;;;;;2.95;2.70;;;;;;;;;;5059671;28;20094;-69
2023/08/18 00:49:10;;;;;;;4.47;3.03;;;;;;;;;;5060440;28;20374;-69
2023/08/18 00:51:38;;;;;;;5.25;2.97;;;;;;;;;;5058639;28;20052;-69
2023/08/18 00:54:04;;;;;;;5.00;3.40;;;;;;;;;;5065425;28;20555;-68
2023/08/18 00:56:31;;;;;;;4.38;2.75;;;;;;;;;;5059413;28;20730;-71
2023/08/18 00:58:57;;;;;;;6.65;3.60;;;;;;;;;;5053233;28;20043;-69
2023/08/18 01:01:24;;;;;;;5.38;2.95;;;;;;;;;;5060684;28;20041;-68
2023/08/18 01:03:51;;;;;;;5.13;2.70;;;;;;;;;;5056478;28;20031;-67
2023/08/18 01:06:17;;;;;;;8.55;3.42;;;;;;;;;;5054815;28;20029;-68
2023/08/18 01:08:43;;;;;;;7.95;3.75;;;;;;;;;;5058385;28;20393;-68
2023/08/18 01:11:19;;;;;;;4.65;3.30;;;;;;;;;;5065371;28;20024;-69
2023/08/18 01:13:55;;;;;;;6.03;3.50;;;;;;;;;;5057842;28;20037;-69
2023/08/18 01:16:22;;;;;;;6.20;2.90;;;;;;;;;;5054264;28;20047;-68
2023/08/18 01:18:50;;;;;;;6.80;3.08;;;;;;;;;;5056639;28;20028;-69
2023/08/18 01:21:17;;;;;;;7.25;3.13;;;;;;;;;;5056872;28;20032;-68
2023/08/18 01:23:44;;;;;;;4.85;3.25;;;;;;;;;;5056989;28;20099;-67
2023/08/18 01:26:10;;;;;;;4.03;2.88;;;;;;;;;;5055191;28;20021;-67
2023/08/18 01:28:36;;;;;;;11.82;3.70;;;;;;;;;;5055849;28;20056;-68
2023/08/18 01:31:15;;;;;;;3.90;2.72;;;;;;;;;;5054108;28;20029;-68
2023/08/18 01:33:45;;;;;;;6.35;3.70;;;;;;;;;;5052458;28;20032;-68
2023/08/18 01:36:18;;;;;;;7.25;3.33;;;;;;;;;;5070549;28;20045;-68
2023/08/18 01:38:46;;;;;;;5.43;3.35;;;;;;;;;;5050627;28;20040;-68
2023/08/18 01:41:12;;;;;;;4.50;3.13;;;;;;;;;;5049630;28;20032;-70
2023/08/18 01:43:39;;;;;;;4.85;3.00;;;;;;;;;;5045649;28;20629;-68
2023/08/18 01:46:05;;;;;;;4.35;3.00;;;;;;;;;;5054082;28;20033;-69
2023/08/18 01:48:31;;;;;;;5.57;3.10;;;;;;;;;;5058033;28;20162;-69
2023/08/18 01:50:57;;;;;;;7.28;2.92;;;;;;;;;;5056930;28;20041;-69
2023/08/18 01:53:23;;;;;;;9.63;3.35;;;;;;;;;;5051649;28;20036;-69
2023/08/18 01:55:49;;;;;;;5.63;3.63;;;;;;;;;;5052705;28;20090;-68
2023/08/18 01:58:15;;;;;;;6.10;2.97;;;;;;;;;;5054423;28;20029;-68
2023/08/18 02:00:41;;;;;;;6.55;3.17;;;;;;;;;;5053633;28;20029;-69
2023/08/18 02:03:08;;;;;;;6.25;3.28;;;;;;;;;;5051361;28;20028;-68
2023/08/18 02:05:39;;;;;;;3.92;2.78;;;;;;;;;;5058829;28;20021;-68
2023/08/18 02:08:05;;;;;;;9.25;3.50;;;;;;;;;;5055871;28;20516;-69
2023/08/18 02:10:31;;;;;;;6.40;2.75;;;;;;;;;;5056091;28;20036;-68
2023/08/18 02:12:57;;;;;;;5.40;3.10;;;;;;;;;;5052353;28;20068;-69
2023/08/18 02:15:23;;;;;;;3.63;2.90;;;;;;;;;;5062406;28;22304;-68
2023/08/18 02:17:49;;;;;;;6.30;3.03;;;;;;;;;;5060351;28;20025;-68
2023/08/18 02:20:16;;;;;;;5.00;3.10;;;;;;;;;;5059039;28;20054;-70
2023/08/18 02:22:42;;;;;;;7.38;3.10;;;;;;;;;;5053283;28;20020;-69
2023/08/18 02:25:08;;;;;;;7.05;3.22;;;;;;;;;;5058269;28;20025;-69
2023/08/18 02:27:34;;;;;;;4.38;2.67;;;;;;;;;;5054065;28;20025;-68
2023/08/18 02:30:00;;;;;;;4.32;3.13;;;;;;;;;;5058171;28;20028;-69
2023/08/18 02:32:26;;;;;;;9.43;3.83;;;;;;;;;;5054465;28;20111;-70
2023/08/18 02:34:52;;;;;;;6.32;3.20;;;;;;;;;;5051373;28;20048;-69
2023/08/18 02:37:18;;;;;;;10.07;3.20;;;;;;;;;;5051720;28;20120;-69
2023/08/18 02:39:45;;;;;;;5.38;2.65;;;;;;;;;;5056495;28;20020;-69
2023/08/18 02:42:11;;;;;;;4.18;2.67;;;;;;;;;;5056511;28;20400;-70
2023/08/18 02:44:37;;;;;;;5.88;2.75;;;;;;;;;;5051131;28;20025;-69
2023/08/18 02:47:03;;;;;;;6.00;2.80;;;;;;;;;;5056518;28;20020;-69
2023/08/18 02:49:29;;;;;;;7.38;3.25;;;;;;;;;;5056337;28;20073;-69
2023/08/18 02:51:55;;;;;;;5.05;3.08;;;;;;;;;;5055664;28;20032;-70
2023/08/18 02:54:22;;;;;;;6.60;2.88;;;;;;;;;;5054254;28;20041;-69
2023/08/18 02:56:48;;;;;;;6.68;3.15;;;;;;;;;;5053181;28;20481;-69
2023/08/18 02:59:14;;;;;;;4.97;2.90;;;;;;;;;;5051827;28;20540;-68
2023/08/18 03:01:40;;;;;;;4.38;3.30;;;;;;;;;;5055579;28;20058;-69
2023/08/18 03:04:06;;;;;;;6.88;2.97;;;;;;;;;;5058736;28;20078;-70
2023/08/18 03:06:32;;;;;;;4.70;3.00;;;;;;;;;;5052778;28;20411;-68
2023/08/18 03:08:58;;;;;;;6.60;3.80;;;;;;;;;;5064738;28;20020;-69
2023/08/18 03:11:24;;;;;;;7.45;3.03;;;;;;;;;;5047510;28;20029;-69
2023/08/18 03:13:51;;;;;;;7.43;3.22;;;;;;;;;;5055629;28;20028;-69
2023/08/18 03:16:18;;;;;;;7.43;3.20;;;;;;;;;;5059415;28;20484;-68
2023/08/18 03:18:45;;;;;;;6.65;3.55;;;;;;;;;;5049714;28;20757;-69
2023/08/18 03:21:11;;;;;;;8.10;3.15;;;;;;;;;;5052932;28;20104;-68
2023/08/18 03:23:37;;;;;;;6.65;3.90;;;;;;;;;;5048916;28;20032;-69
2023/08/18 03:26:04;;;;;;;7.03;2.80;;;;;;;;;;5053194;28;20032;-68
2023/08/18 03:28:31;;;;;;;6.75;2.95;;;;;;;;;;5053402;28;20029;-69
2023/08/18 03:31:04;;;;;;;7.50;3.20;;;;;;;;;;5054927;28;20029;-68
2023/08/18 03:33:31;;;;;;;9.75;3.45;;;;;;;;;;5050314;28;20029;-69
2023/08/18 03:35:58;;;;;;;5.68;4.47;;;;;;;;;;5073834;28;20066;-70
2023/08/18 03:38:24;;;;;;;7.63;3.40;;;;;;;;;;5054379;28;20029;-68
2023/08/18 03:40:57;;;;;;;11.52;4.55;;;;;;;;;;5056671;28;20039;-68
2023/08/18 03:43:23;;;;;;;7.43;2.88;;;;;;;;;;5053898;28;20032;-70
2023/08/18 03:45:49;;;;;;;13.57;3.85;;;;;;;;;;5053060;28;20029;-69
2023/08/18 03:48:15;;;;;;;5.15;2.90;;;;;;;;;;5057827;28;20103;-70
2023/08/18 03:50:41;;;;;;;7.47;3.50;;;;;;;;;;5059774;28;20025;-68
2023/08/18 03:53:07;;;;;;;6.50;2.85;;;;;;;;;;5047908;28;20040;-69
2023/08/18 03:55:33;;;;;;;5.45;3.15;;;;;;;;;;5057146;28;20061;-69
2023/08/18 03:58:00;;;;;;;8.23;3.28;;;;;;;;;;5055476;28;20077;-69
2023/08/18 04:00:26;;;;;;;8.20;3.70;;;;;;;;;;5053728;28;20451;-70
2023/08/18 04:02:52;;;;;;;6.43;3.00;;;;;;;;;;5058153;28;20048;-69
2023/08/18 04:05:18;;;;;;;8.63;3.40;;;;;;;;;;5053017;28;20104;-70
2023/08/18 04:07:44;;;;;;;7.28;3.78;;;;;;;;;;5061928;28;20029;-69
2023/08/18 04:10:10;;;;;;;5.80;3.78;;;;;;;;;;5055734;28;20582;-69
2023/08/18 04:12:36;;;;;;;6.78;4.15;;;;;;;;;;5059907;28;20060;-69
2023/08/18 04:15:02;;;;;;;6.13;3.50;;;;;;;;;;5053766;28;20051;-70
2023/08/18 04:17:28;;;;;;;5.95;3.08;;;;;;;;;;5063624;28;20537;-69
2023/08/18 04:19:54;;;;;;;9.45;3.13;;;;;;;;;;5063249;28;20095;-69
2023/08/18 04:22:21;;;;;;;7.55;3.30;;;;;;;;;;5056917;28;20041;-69
2023/08/18 04:24:47;;;;;;;9.70;3.75;;;;;;;;;;5053180;28;20384;-69
2023/08/18 04:27:13;;;;;;;9.35;3.20;;;;;;;;;;5049313;28;20113;-69
2023/08/18 04:29:39;;;;;;;6.70;3.45;;;;;;;;;;5060565;28;20039;-68
2023/08/18 04:32:05;;;;;;;9.05;3.72;;;;;;;;;;5056591;28;20085;-69
2023/08/18 04:34:32;;;;;;;8.05;3.97;;;;;;;;;;5055000;28;20094;-68
2023/08/18 04:36:58;;;;;;;10.27;3.78;;;;;;;;;;5058378;28;20040;-69
2023/08/18 04:39:24;;;;;;;8.45;4.28;;;;;;;;;;5054064;28;20032;-69
2023/08/18 04:41:52;;;;;;;8.60;3.88;;;;;;;;;;5053972;28;20052;-69
2023/08/18 04:44:19;;;;;;;6.55;4.18;;;;;;;;;;5056626;28;20020;-68
2023/08/18 04:46:45;;;;;;;6.03;3.15;;;;;;;;;;5061413;28;20025;-71
2023/08/18 04:49:11;;;;;;;9.75;5.32;;;;;;;;;;5055490;28;20090;-70
2023/08/18 04:51:37;;;;;;;6.43;3.65;;;;;;;;;;5050902;28;20048;-70
2023/08/18 04:54:04;;;;;;;9.75;3.58;;;;;;;;;;5052259;28;20043;-69
2023/08/18 04:56:30;;;;;;;4.13;2.97;;;;;;;;;;5051965;28;20036;-69
2023/08/18 04:58:56;;;;;;;8.90;3.80;;;;;;;;;;5055912;28;20415;-69
2023/08/18 05:01:22;;;;;;;11.85;4.63;;;;;;;;;;5058731;28;20463;-70
2023/08/18 05:03:49;;;;;;;7.05;4.28;;;;;;;;;;5053885;28;20052;-69
2023/08/18 05:06:15;;;;;;;6.75;3.83;;;;;;;;;;5057722;28;20078;-70
2023/08/18 05:08:41;;;;;;;9.40;4.00;;;;;;;;;;5051759;28;20031;-69
2023/08/18 05:11:08;;;;;;;11.05;4.35;;;;;;;;;;5058634;28;20116;-69
2023/08/18 05:13:35;;;;;;;12.60;3.47;;;;;;;;;;5053226;28;20032;-70
2023/08/18 05:16:03;;;;;;;9.77;3.53;;;;;;;;;;5053881;28;20112;-68
2023/08/18 05:18:29;;;;;;;8.60;4.57;;;;;;;;;;5057703;28;20020;-68
2023/08/18 05:20:59;;;;;;;8.77;4.05;;;;;;;;;;5048733;28;20028;-69
2023/08/18 05:23:25;;;;;;;8.38;4.78;;;;;;;;;;5053452;28;20508;-69
2023/08/18 05:25:54;;;;;;;11.48;4.00;;;;;;;;;;5052961;28;20028;-68
2023/08/18 05:28:23;;;;;;;9.18;4.00;;;;;;;;;;5059066;28;20487;-68
2023/08/18 05:30:50;;;;;;;14.52;5.05;;;;;;;;;;5052434;28;20032;-67
2023/08/18 05:33:16;;;;;;;9.23;4.63;;;;;;;;;;5065405;28;20123;-68
2023/08/18 05:35:43;;;;;;;6.38;3.67;;;;;;;;;;5056026;28;20059;-70
2023/08/18 05:38:12;;;;;;;12.60;3.88;;;;;;;;;;5057389;28;20112;-68
2023/08/18 05:40:43;;;;;;;9.18;3.97;;;;;;;;;;5057541;28;20024;-68
2023/08/18 05:43:12;;;;;;;6.95;3.60;;;;;;;;;;5055459;28;20028;-68
2023/08/18 05:45:39;;;;;;;9.93;3.78;;;;;;;;;;5058228;28;20358;-68
2023/08/18 05:48:05;;;;;;;8.98;3.60;;;;;;;;;;5058491;28;21295;-68
2023/08/18 05:50:34;;;;;;;11.63;4.93;;;;;;;;;;5041776;28;20399;-69
2023/08/18 05:53:04;;;;;;;13.25;3.83;;;;;;;;;;5050828;28;20086;-68
2023/08/18 05:55:30;;;;;;;7.22;4.03;;;;;;;;;;5042861;28;20587;-69
2023/08/18 05:58:01;;;;;;;11.52;4.35;;;;;;;;;;5046564;28;20367;-69
2023/08/18 06:00:27;;;;;;;7.72;3.97;;;;;;;;;;5046248;28;20120;-69
2023/08/18 06:02:54;;;;;;;7.68;3.97;;;;;;;;;;5073068;28;20380;-69
2023/08/18 06:05:20;;;;;;;9.13;4.10;;;;;;;;;;5056263;28;20029;-68
2023/08/18 06:07:46;;;;;;;9.00;4.68;;;;;;;;;;5053920;28;20583;-68
2023/08/18 06:10:12;;;;;;;10.57;4.65;;;;;;;;;;5053804;28;20029;-68
2023/08/18 06:12:39;;;;;;;10.30;4.55;;;;;;;;;;5050457;28;20421;-69
2023/08/18 06:15:06;;;;;;;14.77;4.50;;;;;;;;;;5046466;28;20029;-69
2023/08/18 06:17:32;;;;;;;8.98;4.68;;;;;;;;;;5059377;28;20036;-69
2023/08/18 06:19:59;;;;;;;10.38;5.18;;;;;;;;;;5060490;28;20031;-70
2023/08/18 06:22:25;;;;;;;10.60;5.28;;;;;;;;;;5053430;28;20033;-69
2023/08/18 06:24:51;;;;;;;13.60;5.32;;;;;;;;;;5060161;28;20028;-68
2023/08/18 06:27:18;;;;;;;9.57;4.47;;;;;;;;;;5054916;28;20270;-69
2023/08/18 06:29:44;;;;;;;6.78;4.32;;;;;;;;;;5061229;28;20024;-69
2023/08/18 06:32:10;;;;;;;14.05;4.63;;;;;;;;;;5051028;28;20565;-68
2023/08/18 06:34:36;;;;;;;10.02;5.13;;;;;;;;;;5049100;28;20059;-67
2023/08/18 06:37:02;;;;;;;11.55;5.03;;;;;;;;;;5051136;28;20047;-69
2023/08/18 06:39:29;;;;;;;12.10;5.15;;;;;;;;;;5043459;28;20041;-69
2023/08/18 06:41:55;;;;;;;9.77;4.85;;;;;;;;;;5053692;28;20024;-69
2023/08/18 06:44:21;;;;;;;9.85;5.13;;;;;;;;;;5056791;28;20029;-69
2023/08/18 06:46:48;;;;;;;11.68;5.20;;;;;;;;;;5057686;28;20033;-68
2023/08/18 06:49:14;;;;;;;8.43;4.57;;;;;;;;;;5054078;28;20081;-69
2023/08/18 06:51:40;;;;;;;12.95;6.75;;;;;;;;;;5053346;28;20032;-68
2023/08/18 06:54:06;;;;;;;10.82;5.45;;;;;;;;;;5045718;28;20087;-68
2023/08/18 06:56:32;;;;;;;9.23;4.97;;;;;;;;;;5053347;28;20058;-68
2023/08/18 06:58:58;;;;;;;10.75;5.25;;;;;;;;;;5055152;28;20399;-71
2023/08/18 07:01:25;;;;;;;11.30;4.97;;;;;;;;;;5054466;28;20024;-71
2023/08/18 07:03:53;;;;;;;9.95;4.88;;;;;;;;;;5051761;28;20039;-72
2023/08/18 07:06:20;;;;;;;12.73;5.00;;;;;;;;;;5045384;28;20784;-72
2023/08/18 07:08:46;;;;;;;10.75;5.78;;;;;;;;;;5049394;28;20037;-72
2023/08/18 07:11:12;;;;;;;11.43;5.57;;;;;;;;;;5052436;28;20028;-72
2023/08/18 07:13:39;;;;;;;9.02;5.55;;;;;;;;;;5051718;28;20043;-72
2023/08/18 07:16:05;;;;;;;8.60;5.00;;;;;;;;;;5046088;28;20032;-72
2023/08/18 07:18:31;;;;;;;8.27;5.15;;;;;;;;;;5069973;28;20033;-73
2023/08/18 07:20:59;;;;;;;12.82;5.25;;;;;;;;;;5050776;28;20077;-74
2023/08/18 07:23:25;;;;;;;10.23;5.03;;;;;;;;;;5052404;28;20074;-72
2023/08/18 07:25:52;;;;;;;7.13;4.70;;;;;;;;;;5054007;28;20028;-72
2023/08/18 07:28:18;;;;;;;10.75;5.45;;;;;;;;;;5049320;28;20025;-72
2023/08/18 07:30:44;;;;;;;8.13;4.82;;;;;;;;;;5051439;28;20126;-72
2023/08/18 07:33:11;;;;;;;10.05;5.30;;;;;;;;;;5049617;28;20033;-72
2023/08/18 07:35:38;;;;;;;9.95;5.10;;;;;;;;;;5056452;28;20060;-73
2023/08/18 07:38:04;;;;;;;9.07;4.35;;;;;;;;;;5048572;28;20468;-71
2023/08/18 07:40:30;;;;;;;9.95;6.32;;;;;;;;;;5056238;28;20488;-71
2023/08/18 07:42:56;;;;;;;11.65;6.28;;;;;;;;;;5053139;28;20021;-73
2023/08/18 07:45:22;;;;;;;8.43;4.72;;;;;;;;;;5056709;28;20027;-72
2023/08/18 07:47:49;;;;;;;9.20;5.18;;;;;;;;;;5052729;28;20079;-73
2023/08/18 07:50:15;;;;;;;7.95;4.82;;;;;;;;;;5064376;28;20020;-73
2023/08/18 07:52:41;;;;;;;7.28;5.53;;;;;;;;;;5060829;28;20036;-72
2023/08/18 07:55:08;;;;;;;8.68;4.68;;;;;;;;;;5058600;28;20039;-71
2023/08/18 07:57:35;;;;;;;10.48;5.75;;;;;;;;;;5054987;28;20035;-73
2023/08/18 08:00:07;;;;;;;6.47;5.07;;;;;;;;;;5053478;28;20503;-72
2023/08/18 08:02:33;;;;;;;11.77;5.60;;;;;;;;;;5057316;28;20033;-73
2023/08/18 08:04:59;;;;;;;5.53;4.63;;;;;;;;;;5045210;28;20036;-73
2023/08/18 08:07:26;;;;;;;8.40;4.78;;;;;;;;;;5059023;28;20025;-72
2023/08/18 08:09:56;;;;;;;10.57;5.25;;;;;;;;;;5050113;28;20509;-72
2023/08/18 08:12:23;;;;;;;7.25;5.15;;;;;;;;;;5065173;28;20040;-72
2023/08/18 08:14:49;;;;;;;9.57;5.32;;;;;;;;;;5052172;28;20041;-72
2023/08/18 08:17:15;;;;;;;12.80;5.88;;;;;;;;;;5053161;28;20527;-73
2023/08/18 08:19:50;;;;;;;8.82;5.18;;;;;;;;;;5063144;28;20074;-71
2023/08/18 08:22:17;;;;;;;8.98;5.40;;;;;;;;;;5059694;28;20037;-68
2023/08/18 08:24:45;;;;;;;11.82;5.70;;;;;;;;;;5060225;28;20025;-72
2023/08/18 08:27:15;;;;;;;9.82;5.43;;;;;;;;;;5057200;28;20028;-72
2023/08/18 08:29:42;;;;;;;7.05;5.28;;;;;;;;;;5058904;28;20368;-71
2023/08/18 08:32:10;;;;;;;8.27;6.53;;;;;;;;;;5070649;28;20391;-71
2023/08/18 08:34:44;;;;;;;7.72;5.57;;;;;;;;;;5054366;28;20100;-72
2023/08/18 08:37:11;;;;;;;12.45;5.90;;;;;;;;;;5057374;28;20475;-72
2023/08/18 08:39:37;;;;;;;10.02;5.95;;;;;;;;;;5058896;28;20456;-71
2023/08/18 08:42:03;;;;;;;9.77;5.30;;;;;;;;;;5051007;28;20035;-70
2023/08/18 08:44:29;;;;;;;11.98;6.03;;;;;;;;;;5056615;28;20414;-73
2023/08/18 08:46:55;;;;;;;7.00;5.22;;;;;;;;;;5056631;28;20028;-73
2023/08/18 08:49:24;;;;;;;9.57;5.05;;;;;;;;;;5062629;28;20082;-74
2023/08/18 08:51:51;;;;;;;10.93;5.20;;;;;;;;;;5059642;28;20033;-73
2023/08/18 08:54:19;;;;;;;9.30;5.20;;;;;;;;;;5060824;28;20113;-75
2023/08/18 08:56:47;;;;;;;7.80;5.22;;;;;;;;;;5062045;28;20071;-75
2023/08/18 08:59:13;;;;;;;10.05;5.45;;;;;;;;;;5060056;28;20037;-73
2023/08/18 09:01:39;;;;;;;8.25;4.45;;;;;;;;;;5058607;28;20029;-75
2023/08/18 09:04:05;;;;;;;6.20;4.50;;;;;;;;;;5059772;28;20024;-74
2023/08/18 09:06:31;;;;;;;5.80;4.55;;;;;;;;;;5076374;28;20059;-72
2023/08/18 09:08:58;;;;;;;7.60;3.97;;;;;;;;;;5060286;28;20545;-73
2023/08/18 09:11:40;;;;;;;10.02;4.22;;;;;;;;;;5061651;28;20517;-72
2023/08/18 09:14:07;;;;;;;8.13;4.55;;;;;;;;;;5072981;28;20064;-72
2023/08/18 09:16:33;;;;;;;6.55;5.65;;;;;;;;;;5058158;28;20124;-73
2023/08/18 09:18:59;;;;;;;7.90;5.00;;;;;;;;;;5053531;28;20043;-72
2023/08/18 09:21:25;;;;;;;9.68;4.90;;;;;;;;;;5058963;28;20100;-72
2023/08/18 09:23:56;;;;;;;9.55;5.90;;;;;;;;;;5059680;28;20087;-72
2023/08/18 09:26:22;;;;;;;7.38;5.13;;;;;;;;;;5056682;28;20043;-71
2023/08/18 09:28:49;;;;;;;11.15;5.10;;;;;;;;;;5054009;28;20567;-74
2023/08/18 09:31:15;;;;;;;7.60;5.43;;;;;;;;;;5059232;28;20543;-74
2023/08/18 09:33:41;;;;;;;6.35;5.38;;;;;;;;;;5058007;28;20055;-74
2023/08/18 09:36:11;;;;;;;9.50;5.57;;;;;;;;;;5052566;28;20053;-71
2023/08/18 09:38:44;;;;;;;9.60;6.20;;;;;;;;;;5056824;28;20123;-71
2023/08/18 09:41:10;;;;;;;10.85;5.90;;;;;;;;;;5060653;28;20136;-74
2023/08/18 09:43:37;;;;;;;10.70;7.10;;;;;;;;;;5053726;28;20024;-72
2023/08/18 09:46:04;;;;;;;9.48;6.18;;;;;;;;;;5054681;28;20306;-72
2023/08/18 09:48:40;;;;;;;11.85;6.85;;;;;;;;;;5058918;28;20500;-72
2023/08/18 09:51:09;;;;;;;10.95;6.90;;;;;;;;;;5056524;28;20107;-73
2023/08/18 09:53:36;;;;;;;11.10;6.55;;;;;;;;;;5060187;28;20054;-72
2023/08/18 09:56:11;;;;;;;14.45;6.88;;;;;;;;;;5077260;28;20425;-71
2023/08/18 09:58:54;;;;;;;13.20;7.40;;;;;;;;;;5054813;28;20718;-71
2023/08/18 10:01:22;;;;;;;9.32;6.25;;;;;;;;;;5057402;28;20033;-73
2023/08/18 10:03:48;;;;;;;8.48;6.05;;;;;;;;;;5056097;28;20453;-72
2023/08/18 10:06:15;;;;;;;12.50;6.88;;;;;;;;;;5053619;28;20427;-71
2023/08/18 10:08:41;;;;;;;9.30;6.30;;;;;;;;;;5056103;28;20431;-75
2023/08/18 10:11:08;;;;;;;10.25;6.60;;;;;;;;;;5045025;28;20037;-72
2023/08/18 10:13:35;;;;;;;9.40;5.93;;;;;;;;;;5044594;28;20068;-72
2023/08/18 10:16:07;;;;;;;10.65;6.05;;;;;;;;;;5043581;28;20507;-70
2023/08/18 10:18:33;;;;;;;14.35;6.55;;;;;;;;;;5047007;28;20495;-70
2023/08/18 10:20:59;;;;;;;10.10;6.10;;;;;;;;;;5047364;28;20028;-77
2023/08/18 10:23:30;;;;;;;11.85;6.90;;;;;;;;;;5055150;28;20388;-74
2023/08/18 10:25:56;;;;;;;13.18;7.55;;;;;;;;;;5048857;28;20514;-71
2023/08/18 10:28:23;;;;;;;13.07;7.43;;;;;;;;;;5046818;28;20040;-70
2023/08/18 10:30:56;;;;;;;13.07;7.18;;;;;;;;;;5045224;28;20439;-71
2023/08/18 10:33:31;;;;;;;14.27;8.27;;;;;;;;;;5048222;28;20472;-74
2023/08/18 10:35:58;;;;;;;12.48;7.85;;;;;;;;;;5056804;28;20049;-71
2023/08/18 10:38:28;;;;;;;14.18;8.40;;;;;;;;;;5054807;28;20500;-70
2023/08/18 10:40:54;;;;;;;16.00;9.25;;;;;;;;;;5051914;28;20743;-72
2023/08/18 10:43:20;;;;;;;16.88;8.85;;;;;;;;;;5053981;28;20131;-70
2023/08/18 10:45:50;;;;;;;10.75;7.30;;;;;;;;;;5057051;28;20465;-71
2023/08/18 10:48:16;;;;;;;13.27;8.73;;;;;;;;;;5061132;28;20656;-71
2023/08/18 10:50:44;;;;;;;12.07;7.97;;;;;;;;;;5062440;28;20119;-71
2023/08/18 10:53:12;;;;;;;16.23;8.88;;;;;;;;;;5061979;28;20052;-73
2023/08/18 10:55:39;;;;;;;15.98;7.88;;;;;;;;;;5061797;28;20021;-73
2023/08/18 10:58:05;;;;;;;15.73;8.07;;;;;;;;;;5061622;28;20020;-72
2023/08/18 11:00:32;;;;;;;14.70;7.90;;;;;;;;;;5061616;28;20112;-72
2023/08/18 11:02:59;;;;;;;14.18;7.53;;;;;;;;;;5059841;28;21440;-72
2023/08/18 11:05:25;;;;;;;14.77;8.07;;;;;;;;;;5058604;28;20147;-72
2023/08/18 11:07:52;;;;;;;12.00;7.85;;;;;;;;;;5073997;28;20032;-74
2023/08/18 11:10:18;;;;;;;12.85;7.60;;;;;;;;;;5060488;28;20060;-72
2023/08/18 11:12:45;;;;;;;14.13;7.78;;;;;;;;;;5063507;28;20385;-72
2023/08/18 11:15:12;;;;;;;12.85;7.65;;;;;;;;;;5056346;28;20036;-73
2023/08/18 11:17:38;;;;;;;15.50;8.25;;;;;;;;;;5057769;28;20029;-73
2023/08/18 11:20:11;;;;;;;10.82;7.43;;;;;;;;;;5058554;28;20532;-73
2023/08/18 11:22:38;;;;;;;14.65;8.35;;;;;;;;;;5054591;28;20064;-71
2023/08/18 11:25:05;;;;;;;14.80;7.20;;;;;;;;;;5058132;28;20773;-75
2023/08/18 11:27:32;;;;;;;10.95;7.25;;;;;;;;;;5054749;28;20432;-72
2023/08/18 11:29:59;;;;;;;8.23;7.15;;;;;;;;;;5059507;28;20119;-71
2023/08/18 11:32:26;;;;;;;14.10;7.45;;;;;;;;;;5053477;28;20041;-72
2023/08/18 11:34:52;;;;;;;9.77;6.75;;;;;;;;;;5053375;28;20504;-77
2023/08/18 11:37:26;;;;;;;9.77;7.55;;;;;;;;;;5054773;28;20032;-75
2023/08/18 11:39:53;;;;;;;14.97;7.63;;;;;;;;;;5061802;28;20052;-77
2023/08/18 11:42:20;;;;;;;11.27;6.93;;;;;;;;;;5060390;28;20043;-73
2023/08/18 11:44:49;;;;;;;12.10;7.30;;;;;;;;;;5054983;28;20396;-76
2023/08/18 11:47:20;;;;;;;10.63;7.07;;;;;;;;;;5061556;28;20040;-75
2023/08/18 11:49:46;;;;;;;11.25;6.93;;;;;;;;;;5058140;28;20044;-75
2023/08/18 11:52:13;;;;;;;13.63;6.50;;;;;;;;;;5055668;28;20028;-75
2023/08/18 11:54:41;;;;;;;11.90;7.10;;;;;;;;;;5060329;28;20377;-73
2023/08/18 11:57:09;;;;;;;13.05;7.28;;;;;;;;;;5060245;28;20401;-72
2023/08/18 11:59:43;;;;;;;8.35;5.95;;;;;;;;;;5057926;28;20544;-70
2023/08/18 12:02:09;;;;;;;17.30;7.25;;;;;;;;;;5059825;28;20024;-74
2023/08/18 12:04:35;;;;;;;14.27;6.88;;;;;;;;;;5055361;28;20126;-73
2023/08/18 12:07:01;;;;;;;12.50;7.20;;;;;;;;;;5055335;28;20108;-72
2023/08/18 12:09:27;;;;;;;11.25;6.55;;;;;;;;;;5055389;28;20033;-72
2023/08/18 12:11:53;;;;;;;11.85;6.45;;;;;;;;;;5052666;28;20041;-72
2023/08/18 12:14:20;;;;;;;13.25;7.18;;;;;;;;;;5056759;28;20808;-71
2023/08/18 12:16:46;;;;;;;12.88;7.10;;;;;;;;;;5057118;28;20043;-72
2023/08/18 12:19:12;;;;;;;14.50;6.95;;;;;;;;;;5056814;28;20024;-73
2023/08/18 12:21:41;;;;;;;11.27;6.82;;;;;;;;;;5046866;28;20037;-72
2023/08/18 12:24:08;;;;;;;10.43;6.57;;;;;;;;;;5067965;28;20025;-75
2023/08/18 12:26:34;;;;;;;13.70;6.75;;;;;;;;;;5049264;28;20115;-74
2023/08/18 12:29:04;;;;;;;13.73;6.88;;;;;;;;;;5047609;28;20035;-75
2023/08/18 12:31:33;;;;;;;13.18;6.68;;;;;;;;;;5043969;28;20047;-75
2023/08/18 12:34:05;;;;;;;11.10;6.10;;;;;;;;;;5044614;28;20276;-75
2023/08/18 12:36:33;;;;;;;13.35;7.10;;;;;;;;;;5052405;28;20135;-75
2023/08/18 12:38:59;;;;;;;15.93;6.18;;;;;;;;;;5047067;28;20029;-75
2023/08/18 12:41:28;;;;;;;11.75;6.57;;;;;;;;;;5052884;28;20447;-75
2023/08/18 12:43:54;;;;;;;8.40;5.97;;;;;;;;;;5060295;28;20029;-75
2023/08/18 12:46:21;;;;;;;10.57;6.70;;;;;;;;;;5050670;28;20103;-75
2023/08/18 12:48:49;;;;;;;11.70;5.95;;;;;;;;;;5055997;28;20454;-75
2023/08/18 12:51:17;;;;;;;9.95;5.78;;;;;;;;;;5049727;28;20028;-75
2023/08/18 12:53:44;;;;;;;11.60;6.18;;;;;;;;;;5055159;28;21172;-73
2023/08/18 12:56:11;;;;;;;9.65;5.53;;;;;;;;;;5045135;28;20036;-73
2023/08/18 12:58:37;;;;;;;8.25;5.85;;;;;;;;;;5052798;28;20434;-72
2023/08/18 13:01:03;;;;;;;11.60;5.72;;;;;;;;;;5051163;28;20035;-71
2023/08/18 13:03:29;;;;;;;9.45;4.82;;;;;;;;;;5056114;28;20059;-72
2023/08/18 13:05:56;;;;;;;8.23;5.57;;;;;;;;;;5051167;28;20557;-72
2023/08/18 13:08:22;;;;;;;12.10;5.80;;;;;;;;;;5054154;28;20486;-67
2023/08/18 13:10:48;;;;;;;8.18;4.88;;;;;;;;;;5049384;28;20024;-67
2023/08/18 13:13:14;;;;;;;7.95;4.70;;;;;;;;;;5053362;28;20475;-72
2023/08/18 13:15:40;;;;;;;8.70;5.43;;;;;;;;;;5045587;28;20423;-72
2023/08/18 13:18:07;;;;;;;9.35;4.60;;;;;;;;;;5047103;28;20422;-71
2023/08/18 13:20:33;;;;;;;6.35;4.35;;;;;;;;;;5042476;28;20025;-71
2023/08/18 13:22:59;;;;;;;11.60;5.35;;;;;;;;;;5049984;28;20028;-70
2023/08/18 13:25:32;;;;;;;7.20;3.83;;;;;;;;;;5055407;28;20017;-69
2023/08/18 13:27:59;;;;;;;6.65;4.07;;;;;;;;;;5070531;28;20420;-71
2023/08/18 13:30:25;;;;;;;7.57;4.43;;;;;;;;;;5054177;28;20100;-72
2023/08/18 13:32:51;;;;;;;5.75;3.83;;;;;;;;;;5053443;28;20089;-72
2023/08/18 13:35:17;;;;;;;6.45;4.25;;;;;;;;;;5055344;28;20504;-71
2023/08/18 13:37:43;;;;;;;6.57;4.55;;;;;;;;;;5053063;28;20114;-70
2023/08/18 13:40:09;;;;;;;7.72;3.92;;;;;;;;;;5056398;28;20039;-72
2023/08/18 13:42:36;;;;;;;8.15;4.40;;;;;;;;;;5053945;28;20028;-71
2023/08/18 13:45:02;;;;;;;6.03;4.07;;;;;;;;;;5054744;28;20048;-72
2023/08/18 13:47:29;;;;;;;8.98;4.53;;;;;;;;;;5048465;28;20591;-72
2023/08/18 13:49:55;;;;;;;5.93;3.88;;;;;;;;;;5045792;28;20021;-70
2023/08/18 13:52:21;;;;;;;8.18;4.60;;;;;;;;;;5053663;28;20113;-72
2023/08/18 13:54:47;;;;;;;7.53;4.68;;;;;;;;;;5044453;28;20032;-72
2023/08/18 13:57:16;;;;;;;5.10;3.83;;;;;;;;;;5046942;28;20033;-72
2023/08/18 13:59:44;;;;;;;5.70;3.72;;;;;;;;;;5045510;28;20021;-71
2023/08/18 14:02:11;;;;;;;10.70;4.55;;;;;;;;;;5040204;28;20054;-71
2023/08/18 14:04:37;;;;;;;6.07;4.45;;;;;;;;;;5050272;28;20053;-71
2023/08/18 14:07:03;;;;;;;6.25;3.92;;;;;;;;;;5047717;28;20025;-71
2023/08/18 14:09:29;;;;;;;7.05;4.00;;;;;;;;;;5051436;28;20403;-71
2023/08/18 14:11:55;;;;;;;6.70;4.20;;;;;;;;;;5057084;28;20070;-71
2023/08/18 14:14:21;;;;;;;10.10;4.60;;;;;;;;;;5050707;28;20037;-71
2023/08/18 14:16:47;;;;;;;8.93;3.80;;;;;;;;;;5052034;28;20056;-72
2023/08/18 14:19:16;;;;;;;9.20;4.57;;;;;;;;;;5047003;28;20039;-72
2023/08/18 14:21:44;;;;;;;10.48;4.57;;;;;;;;;;5052311;28;20078;-70
2023/08/18 14:24:11;;;;;;;5.72;3.97;;;;;;;;;;5052106;28;20483;-72
2023/08/18 14:26:37;;;;;;;11.13;4.75;;;;;;;;;;5053166;28;20492;-71
2023/08/18 14:29:03;;;;;;;9.13;4.82;;;;;;;;;;5050200;28;20065;-71
2023/08/18 14:31:29;;;;;;;9.63;5.32;;;;;;;;;;5051706;28;20044;-72
2023/08/18 14:33:56;;;;;;;10.15;4.30;;;;;;;;;;5051682;28;20059;-71
2023/08/18 14:36:22;;;;;;;9.48;4.85;;;;;;;;;;5066540;28;20496;-72